sensor_id;sensor_type;location;lat;lon;timestamp;pressure;altitude;pressure_sealevel;temperature
27715;BMP280;16051;53.024;8.630;2022-12-26T00:01:22;100806.09;;;7.78
27715;BMP280;16051;53.024;8.630;2022-12-26T00:05:24;100807.72;;;7.97
27715;BMP280;16051;53.024;8.630;2022-12-26T00:09:28;100802.22;;;7.97
27715;BMP280;16051;53.024;8.630;2022-12-26T00:13:53;100810.63;;;7.93
27715;BMP280;16051;53.024;8.630;2022-12-26T00:17:55;100814.31;;;8.00
27715;BMP280;16051;53.024;8.630;2022-12-26T00:21:58;100806.06;;;8.00
27715;BMP280;16051;53.024;8.630;2022-12-26T00:26:03;100807.03;;;8.06
27715;BMP280;16051;53.024;8.630;2022-12-26T00:30:08;100794.78;;;8.07
27715;BMP280;16051;53.024;8.630;2022-12-26T00:34:10;100796.31;;;8.08
27715;BMP280;16051;53.024;8.630;2022-12-26T00:38:12;100795.41;;;8.11
27715;BMP280;16051;53.024;8.630;2022-12-26T00:42:22;100806.91;;;8.18
27715;BMP280;16051;53.024;8.630;2022-12-26T00:46:26;100823.59;;;8.24
27715;BMP280;16051;53.024;8.630;2022-12-26T00:50:28;100816.69;;;8.19
27715;BMP280;16051;53.024;8.630;2022-12-26T00:54:30;100807.81;;;8.15
27715;BMP280;16051;53.024;8.630;2022-12-26T00:58:34;100809.34;;;8.16
27715;BMP280;16051;53.024;8.630;2022-12-26T01:02:36;100818.88;;;8.24
27715;BMP280;16051;53.024;8.630;2022-12-26T01:06:38;100818.25;;;8.20
27715;BMP280;16051;53.024;8.630;2022-12-26T01:10:41;100810.13;;;8.17
27715;BMP280;16051;53.024;8.630;2022-12-26T01:14:45;100804.16;;;8.18
27715;BMP280;16051;53.024;8.630;2022-12-26T01:18:47;100804.16;;;8.18
27715;BMP280;16051;53.024;8.630;2022-12-26T01:22:49;100813.78;;;8.14
27715;BMP280;16051;53.024;8.630;2022-12-26T01:26:51;100800.03;;;8.14
27715;BMP280;16051;53.024;8.630;2022-12-26T01:30:59;100817.47;;;8.20
27715;BMP280;16051;53.024;8.630;2022-12-26T01:35:02;100808.28;;;8.14
27715;BMP280;16051;53.024;8.630;2022-12-26T01:39:04;100820.94;;;8.11
27715;BMP280;16051;53.024;8.630;2022-12-26T01:43:10;100819.91;;;8.18
27715;BMP280;16051;53.024;8.630;2022-12-26T01:47:14;100817.41;;;8.11
27715;BMP280;16051;53.024;8.630;2022-12-26T01:51:20;100819.16;;;8.17
27715;BMP280;16051;53.024;8.630;2022-12-26T01:55:41;100817.75;;;8.13
27715;BMP280;16051;53.024;8.630;2022-12-26T01:59:46;100819.59;;;8.16
27715;BMP280;16051;53.024;8.630;2022-12-26T02:03:53;100830.16;;;8.17
27715;BMP280;16051;53.024;8.630;2022-12-26T02:08:18;100826.63;;;8.17
27715;BMP280;16051;53.024;8.630;2022-12-26T02:12:25;100819.59;;;8.16
27715;BMP280;16051;53.024;8.630;2022-12-26T02:16:55;100827.72;;;8.19
27715;BMP280;16051;53.024;8.630;2022-12-26T02:21:17;100825.88;;;8.25
27715;BMP280;16051;53.024;8.630;2022-12-26T02:25:58;100815.16;;;8.18
27715;BMP280;16051;53.024;8.630;2022-12-26T02:30:36;100827.00;;;8.28
27715;BMP280;16051;53.024;8.630;2022-12-26T02:34:58;100834.44;;;8.18
27715;BMP280;16051;53.024;8.630;2022-12-26T02:39:20;100823.13;;;8.25
27715;BMP280;16051;53.024;8.630;2022-12-26T02:43:36;100827.88;;;8.25
27715;BMP280;16051;53.024;8.630;2022-12-26T02:47:52;100832.31;;;8.22
27715;BMP280;16051;53.024;8.630;2022-12-26T02:52:04;100816.88;;;8.25
27715;BMP280;16051;53.024;8.630;2022-12-26T02:56:35;100822.50;;;8.21
27715;BMP280;16051;53.024;8.630;2022-12-26T03:01:03;100822.97;;;8.20
27715;BMP280;16051;53.024;8.630;2022-12-26T03:05:32;100816.38;;;8.39
27715;BMP280;16051;53.024;8.630;2022-12-26T03:10:17;100831.97;;;8.42
27715;BMP280;16051;53.024;8.630;2022-12-26T03:14:49;100822.44;;;8.34
27715;BMP280;16051;53.024;8.630;2022-12-26T03:18:59;100813.13;;;8.31
27715;BMP280;16051;53.024;8.630;2022-12-26T03:23:06;100821.72;;;8.43
27715;BMP280;16051;53.024;8.630;2022-12-26T03:27:10;100825.84;;;8.38
27715;BMP280;16051;53.024;8.630;2022-12-26T03:31:14;100828.53;;;8.29
27715;BMP280;16051;53.024;8.630;2022-12-26T03:35:16;100824.13;;;8.31
27715;BMP280;16051;53.024;8.630;2022-12-26T03:39:28;100831.78;;;8.36
27715;BMP280;16051;53.024;8.630;2022-12-26T03:44:08;100821.88;;;8.39
27715;BMP280;16051;53.024;8.630;2022-12-26T03:48:51;100818.34;;;8.38
27715;BMP280;16051;53.024;8.630;2022-12-26T03:53:20;100823.09;;;8.38
27715;BMP280;16051;53.024;8.630;2022-12-26T03:57:59;100825.69;;;8.42
27715;BMP280;16051;53.024;8.630;2022-12-26T04:02:23;100824.16;;;8.40
27715;BMP280;16051;53.024;8.630;2022-12-26T04:06:52;100817.88;;;8.40
27715;BMP280;16051;53.024;8.630;2022-12-26T04:11:17;100821.09;;;8.38
27715;BMP280;16051;53.024;8.630;2022-12-26T04:15:44;100831.78;;;8.36
27715;BMP280;16051;53.024;8.630;2022-12-26T04:20:13;100828.44;;;8.42
27715;BMP280;16051;53.024;8.630;2022-12-26T04:24:23;100833.97;;;8.51
27715;BMP280;16051;53.024;8.630;2022-12-26T04:28:44;100845.47;;;8.58
27715;BMP280;16051;53.024;8.630;2022-12-26T04:33:10;100845.03;;;8.69
27715;BMP280;16051;53.024;8.630;2022-12-26T04:37:35;100853.91;;;8.64
27715;BMP280;16051;53.024;8.630;2022-12-26T04:42:00;100849.03;;;8.68
27715;BMP280;16051;53.024;8.630;2022-12-26T04:46:29;100843.19;;;8.66
27715;BMP280;16051;53.024;8.630;2022-12-26T04:50:33;100842.00;;;8.76
27715;BMP280;16051;53.024;8.630;2022-12-26T04:54:34;100838.50;;;8.84
27715;BMP280;16051;53.024;8.630;2022-12-26T04:58:36;100846.13;;;8.80
27715;BMP280;16051;53.024;8.630;2022-12-26T05:02:38;100850.09;;;8.79
27715;BMP280;16051;53.024;8.630;2022-12-26T05:07:01;100860.53;;;8.84
27715;BMP280;16051;53.024;8.630;2022-12-26T05:11:27;100853.97;;;8.82
27715;BMP280;16051;53.024;8.630;2022-12-26T05:15:29;100835.84;;;8.72
27715;BMP280;16051;53.024;8.630;2022-12-26T05:19:52;100836.53;;;8.85
27715;BMP280;16051;53.024;8.630;2022-12-26T05:24:13;100838.06;;;8.86
27715;BMP280;16051;53.024;8.630;2022-12-26T05:28:53;100844.59;;;8.79
27715;BMP280;16051;53.024;8.630;2022-12-26T05:32:55;100846.63;;;8.79
27715;BMP280;16051;53.024;8.630;2022-12-26T05:37:15;100851.03;;;8.76
27715;BMP280;16051;53.024;8.630;2022-12-26T05:41:18;100843.72;;;8.92
27715;BMP280;16051;53.024;8.630;2022-12-26T05:45:20;100830.69;;;8.83
27715;BMP280;16051;53.024;8.630;2022-12-26T05:49:23;100847.53;;;8.94
27715;BMP280;16051;53.024;8.630;2022-12-26T05:53:42;100842.66;;;8.89
27715;BMP280;16051;53.024;8.630;2022-12-26T05:57:46;100845.09;;;8.87
27715;BMP280;16051;53.024;8.630;2022-12-26T06:01:48;100861.94;;;8.89
27715;BMP280;16051;53.024;8.630;2022-12-26T06:05:50;100848.94;;;8.99
27715;BMP280;16051;53.024;8.630;2022-12-26T06:09:52;100855.50;;;8.92
27715;BMP280;16051;53.024;8.630;2022-12-26T06:13:55;100850.63;;;8.96
27715;BMP280;16051;53.024;8.630;2022-12-26T06:17:58;100860.84;;;8.86
27715;BMP280;16051;53.024;8.630;2022-12-26T06:22:00;100873.09;;;8.95
27715;BMP280;16051;53.024;8.630;2022-12-26T06:26:16;100874.06;;;9.01
27715;BMP280;16051;53.024;8.630;2022-12-26T06:30:20;100862.25;;;9.00
27715;BMP280;16051;53.024;8.630;2022-12-26T06:34:22;100875.41;;;8.96
27715;BMP280;16051;53.024;8.630;2022-12-26T06:38:24;100881.50;;;8.91
27715;BMP280;16051;53.024;8.630;2022-12-26T06:42:27;100882.91;;;8.96
27715;BMP280;16051;53.024;8.630;2022-12-26T06:46:32;100890.69;;;8.97
27715;BMP280;16051;53.024;8.630;2022-12-26T06:50:35;100896.69;;;8.96
27715;BMP280;16051;53.024;8.630;2022-12-26T06:54:37;100898.06;;;9.00
27715;BMP280;16051;53.024;8.630;2022-12-26T06:58:41;100887.22;;;9.06
27715;BMP280;16051;53.024;8.630;2022-12-26T07:02:48;100889.81;;;9.09
27715;BMP280;16051;53.024;8.630;2022-12-26T07:07:04;100892.09;;;9.02
27715;BMP280;16051;53.024;8.630;2022-12-26T07:11:12;100881.25;;;9.16
27715;BMP280;16051;53.024;8.630;2022-12-26T07:15:15;100869.31;;;9.10
27715;BMP280;16051;53.024;8.630;2022-12-26T07:19:19;100874.16;;;8.97
27715;BMP280;16051;53.024;8.630;2022-12-26T07:23:21;100878.16;;;8.96
27715;BMP280;16051;53.024;8.630;2022-12-26T07:27:23;100873.09;;;8.95
27715;BMP280;16051;53.024;8.630;2022-12-26T07:31:25;100855.03;;;8.94
27715;BMP280;16051;53.024;8.630;2022-12-26T07:35:29;100865.59;;;8.95
27715;BMP280;16051;53.024;8.630;2022-12-26T07:39:39;100854.72;;;8.92
27715;BMP280;16051;53.024;8.630;2022-12-26T07:43:41;100856.28;;;8.93
27715;BMP280;16051;53.024;8.630;2022-12-26T07:47:44;100847.38;;;8.98
27715;BMP280;16051;53.024;8.630;2022-12-26T07:51:48;100851.38;;;8.97
27715;BMP280;16051;53.024;8.630;2022-12-26T07:56:06;100855.50;;;8.92
27715;BMP280;16051;53.024;8.630;2022-12-26T08:00:09;100854.88;;;8.88
27715;BMP280;16051;53.024;8.630;2022-12-26T08:04:13;100877.84;;;8.85
27715;BMP280;16051;53.024;8.630;2022-12-26T08:08:17;100882.56;;;8.94
27715;BMP280;16051;53.024;8.630;2022-12-26T08:12:19;100879.69;;;8.97
27715;BMP280;16051;53.024;8.630;2022-12-26T08:16:24;100883.97;;;8.89
27715;BMP280;16051;53.024;8.630;2022-12-26T08:20:26;100878.00;;;8.90
27715;BMP280;16051;53.024;8.630;2022-12-26T08:24:53;100872.63;;;8.87
27715;BMP280;16051;53.024;8.630;2022-12-26T08:28:56;100869.56;;;8.94
27715;BMP280;16051;53.024;8.630;2022-12-26T08:32:58;100864.25;;;9.00
27715;BMP280;16051;53.024;8.630;2022-12-26T08:37:00;100864.34;;;8.87
27715;BMP280;16051;53.024;8.630;2022-12-26T08:41:04;100867.91;;;8.97
27715;BMP280;16051;53.024;8.630;2022-12-26T08:45:17;100868.03;;;8.84
27715;BMP280;16051;53.024;8.630;2022-12-26T08:49:22;100887.50;;;8.89
27715;BMP280;16051;53.024;8.630;2022-12-26T08:53:24;100889.63;;;8.85
27715;BMP280;16051;53.024;8.630;2022-12-26T08:57:37;100887.00;;;8.82
27715;BMP280;16051;53.024;8.630;2022-12-26T09:01:46;100893.75;;;8.90
27715;BMP280;16051;53.024;8.630;2022-12-26T09:05:48;100897.75;;;8.89
27715;BMP280;16051;53.024;8.630;2022-12-26T09:09:51;100892.38;;;8.95
27715;BMP280;16051;53.024;8.630;2022-12-26T09:14:02;100891.16;;;8.96
27715;BMP280;16051;53.024;8.630;2022-12-26T09:18:04;100891.00;;;8.90
27715;BMP280;16051;53.024;8.630;2022-12-26T09:22:10;100896.22;;;8.97
27715;BMP280;16051;53.024;8.630;2022-12-26T09:26:27;100895.31;;;9.09
27715;BMP280;16051;53.024;8.630;2022-12-26T09:30:30;100877.09;;;9.03
27715;BMP280;16051;53.024;8.630;2022-12-26T09:34:47;100878.34;;;9.11
27715;BMP280;16051;53.024;8.630;2022-12-26T09:39:10;100883.88;;;9.11
27715;BMP280;16051;53.024;8.630;2022-12-26T09:43:21;100887.69;;;9.13
27715;BMP280;16051;53.024;8.630;2022-12-26T09:47:45;100890.72;;;9.06
27715;BMP280;16051;53.024;8.630;2022-12-26T09:51:56;100863.78;;;9.19
27715;BMP280;16051;53.024;8.630;2022-12-26T09:56:04;100867.19;;;9.32
27715;BMP280;16051;53.024;8.630;2022-12-26T10:00:19;100876.06;;;9.46
27715;BMP280;16051;53.024;8.630;2022-12-26T10:04:31;100880.03;;;9.63
27715;BMP280;16051;53.024;8.630;2022-12-26T10:08:48;100866.25;;;9.63
27715;BMP280;16051;53.024;8.630;2022-12-26T10:13:14;100863.50;;;9.63
27715;BMP280;16051;53.024;8.630;2022-12-26T10:17:35;100863.81;;;9.65
27715;BMP280;16051;53.024;8.630;2022-12-26T10:21:56;100852.31;;;9.66
27715;BMP280;16051;53.024;8.630;2022-12-26T10:26:14;100854.47;;;9.71
27715;BMP280;16051;53.024;8.630;2022-12-26T10:30:24;100844.03;;;9.75
27715;BMP280;16051;53.024;8.630;2022-12-26T10:34:34;100851.34;;;9.87
27715;BMP280;16051;53.024;8.630;2022-12-26T10:38:43;100839.88;;;9.89
27715;BMP280;16051;53.024;8.630;2022-12-26T10:42:51;100845.22;;;9.93
27715;BMP280;16051;53.024;8.630;2022-12-26T10:47:22;100860.06;;;9.95
27715;BMP280;16051;53.024;8.630;2022-12-26T10:51:26;100850.84;;;10.07
27715;BMP280;16051;53.024;8.630;2022-12-26T10:55:37;100859.00;;;10.02
27715;BMP280;16051;53.024;8.630;2022-12-26T10:59:47;100853.94;;;10.00
27715;BMP280;16051;53.024;8.630;2022-12-26T11:03:54;100850.91;;;9.98
27715;BMP280;16051;53.024;8.630;2022-12-26T11:08:08;100854.41;;;9.99
27715;BMP280;16051;53.024;8.630;2022-12-26T11:12:33;100857.78;;;9.94
27715;BMP280;16051;53.024;8.630;2022-12-26T11:16:39;100860.84;;;9.96
27715;BMP280;16051;53.024;8.630;2022-12-26T11:20:44;100854.72;;;9.92
27715;BMP280;16051;53.024;8.630;2022-12-26T11:25:16;100847.69;;;9.91
27715;BMP280;16051;53.024;8.630;2022-12-26T11:29:28;100863.00;;;9.92
27715;BMP280;16051;53.024;8.630;2022-12-26T11:33:34;100851.66;;;9.80
27715;BMP280;16051;53.024;8.630;2022-12-26T11:37:43;100851.38;;;9.78
27715;BMP280;16051;53.024;8.630;2022-12-26T11:41:51;100853.22;;;9.81
27715;BMP280;16051;53.024;8.630;2022-12-26T11:45:55;100853.84;;;9.76
27715;BMP280;16051;53.024;8.630;2022-12-26T11:50:09;100848.16;;;9.80
27715;BMP280;16051;53.024;8.630;2022-12-26T11:54:48;100865.47;;;9.80
27715;BMP280;16051;53.024;8.630;2022-12-26T11:59:15;100855.53;;;9.83
27715;BMP280;16051;53.024;8.630;2022-12-26T12:03:27;100862.88;;;9.86
27715;BMP280;16051;53.024;8.630;2022-12-26T12:08:12;100866.06;;;9.84
27715;BMP280;16051;53.024;8.630;2022-12-26T12:12:28;100885.09;;;9.73
27715;BMP280;16051;53.024;8.630;2022-12-26T12:16:46;100876.06;;;9.82
27715;BMP280;16051;53.024;8.630;2022-12-26T12:21:09;100893.38;;;9.73
27715;BMP280;16051;53.024;8.630;2022-12-26T12:25:30;100902.13;;;9.72
27715;BMP280;16051;53.024;8.630;2022-12-26T12:30:01;100913.91;;;9.72
27715;BMP280;16051;53.024;8.630;2022-12-26T12:34:25;100919.13;;;9.70
27715;BMP280;16051;53.024;8.630;2022-12-26T12:38:59;100926.00;;;9.66
27715;BMP280;16051;53.024;8.630;2022-12-26T12:43:26;100948.84;;;9.66
27715;BMP280;16051;53.024;8.630;2022-12-26T12:47:43;100949.28;;;9.56
27715;BMP280;16051;53.024;8.630;2022-12-26T12:52:04;100977.13;;;9.30
27715;BMP280;16051;53.024;8.630;2022-12-26T12:56:22;100982.00;;;9.26
27715;BMP280;16051;53.024;8.630;2022-12-26T13:00:39;100978.75;;;9.01
27715;BMP280;16051;53.024;8.630;2022-12-26T13:04:48;100982.25;;;9.01
27715;BMP280;16051;53.024;8.630;2022-12-26T13:09:04;100970.13;;;8.89
27715;BMP280;16051;53.024;8.630;2022-12-26T13:13:18;100984.63;;;8.81
27715;BMP280;16051;53.024;8.630;2022-12-26T13:17:27;100986.97;;;8.61
27715;BMP280;16051;53.024;8.630;2022-12-26T13:21:36;101011.00;;;8.60
27715;BMP280;16051;53.024;8.630;2022-12-26T13:25:46;101028.78;;;8.47
27715;BMP280;16051;53.024;8.630;2022-12-26T13:30:15;101042.19;;;8.35
27715;BMP280;16051;53.024;8.630;2022-12-26T13:34:20;101052.78;;;8.24
27715;BMP280;16051;53.024;8.630;2022-12-26T13:43:26;101074.81;;;8.12
27715;BMP280;16051;53.024;8.630;2022-12-26T13:47:57;101082.88;;;8.06
27715;BMP280;16051;53.024;8.630;2022-12-26T13:52:33;101085.56;;;7.84
27715;BMP280;16051;53.024;8.630;2022-12-26T13:57:22;101109.44;;;7.87
27715;BMP280;16051;53.024;8.630;2022-12-26T14:01:49;101126.59;;;7.91
27715;BMP280;16051;53.024;8.630;2022-12-26T14:06:53;101142.34;;;7.78
27715;BMP280;16051;53.024;8.630;2022-12-26T14:33:38;101184.00;;;7.39
27715;BMP280;16051;53.024;8.630;2022-12-26T14:38:46;101206.09;;;7.35
27715;BMP280;16051;53.024;8.630;2022-12-26T14:43:27;101208.84;;;7.35
27715;BMP280;16051;53.024;8.630;2022-12-26T14:48:01;101205.63;;;7.24
27715;BMP280;16051;53.024;8.630;2022-12-26T14:52:36;101209.59;;;7.23
27715;BMP280;16051;53.024;8.630;2022-12-26T14:56:52;101208.16;;;7.19
27715;BMP280;16051;53.024;8.630;2022-12-26T15:01:45;101214.06;;;7.05
27715;BMP280;16051;53.024;8.630;2022-12-26T15:05:50;101220.59;;;6.94
27715;BMP280;16051;53.024;8.630;2022-12-26T15:10:34;101221.75;;;6.81
27715;BMP280;16051;53.024;8.630;2022-12-26T15:15:30;101226.38;;;6.84
27715;BMP280;16051;53.024;8.630;2022-12-26T15:30:13;101252.81;;;6.78
27715;BMP280;16051;53.024;8.630;2022-12-26T15:34:38;101258.00;;;6.76
27715;BMP280;16051;53.024;8.630;2022-12-26T15:39:15;101254.47;;;6.75
27715;BMP280;16051;53.024;8.630;2022-12-26T15:43:51;101260.16;;;6.68
27715;BMP280;16051;53.024;8.630;2022-12-26T15:48:28;101262.19;;;6.64
27715;BMP280;16051;53.024;8.630;2022-12-26T15:52:45;101271.56;;;6.51
27715;BMP280;16051;53.024;8.630;2022-12-26T15:57:09;101277.41;;;6.36
27715;BMP280;16051;53.024;8.630;2022-12-26T16:01:36;101280.16;;;6.36
27715;BMP280;16051;53.024;8.630;2022-12-26T16:05:51;101283.91;;;6.26
27715;BMP280;16051;53.024;8.630;2022-12-26T16:09:59;101292.41;;;6.32
27715;BMP280;16051;53.024;8.630;2022-12-26T16:14:26;101298.56;;;6.20
27715;BMP280;16051;53.024;8.630;2022-12-26T16:18:30;101297.69;;;6.23
27715;BMP280;16051;53.024;8.630;2022-12-26T16:22:47;101300.44;;;6.23
27715;BMP280;16051;53.024;8.630;2022-12-26T16:26:49;101302.66;;;6.12
27715;BMP280;16051;53.024;8.630;2022-12-26T16:30:52;101299.25;;;6.08
27715;BMP280;16051;53.024;8.630;2022-12-26T16:34:55;101311.47;;;6.03
27715;BMP280;16051;53.024;8.630;2022-12-26T16:38:59;101319.25;;;5.88
27715;BMP280;16051;53.024;8.630;2022-12-26T16:43:05;101337.78;;;5.81
27715;BMP280;16051;53.024;8.630;2022-12-26T16:47:16;101344.69;;;5.69
27715;BMP280;16051;53.024;8.630;2022-12-26T16:51:55;101332.53;;;5.70
27715;BMP280;16051;53.024;8.630;2022-12-26T16:56:23;101340.66;;;5.54
27715;BMP280;16051;53.024;8.630;2022-12-26T17:00:27;101349.53;;;5.62
27715;BMP280;16051;53.024;8.630;2022-12-26T17:04:30;101352.78;;;5.57
27715;BMP280;16051;53.024;8.630;2022-12-26T17:09:04;101357.88;;;5.55
27715;BMP280;16051;53.024;8.630;2022-12-26T17:13:19;101353.66;;;5.50
27715;BMP280;16051;53.024;8.630;2022-12-26T17:17:31;101361.81;;;5.34
27715;BMP280;16051;53.024;8.630;2022-12-26T17:21:42;101366.25;;;5.28
27715;BMP280;16051;53.024;8.630;2022-12-26T17:26:22;101368.25;;;5.24
27715;BMP280;16051;53.024;8.630;2022-12-26T17:30:29;101374.22;;;5.19
27715;BMP280;16051;53.024;8.630;2022-12-26T17:34:44;101377.38;;;5.17
27715;BMP280;16051;53.024;8.630;2022-12-26T17:38:48;101383.22;;;5.19
27715;BMP280;16051;53.024;8.630;2022-12-26T17:43:06;101377.84;;;5.12
27715;BMP280;16051;53.024;8.630;2022-12-26T17:47:20;101396.84;;;5.00
27715;BMP280;16051;53.024;8.630;2022-12-26T17:51:23;101393.44;;;4.92
27715;BMP280;16051;53.024;8.630;2022-12-26T17:55:26;101386.97;;;5.06
27715;BMP280;16051;53.024;8.630;2022-12-26T17:59:28;101397.56;;;5.04
27715;BMP280;16051;53.024;8.630;2022-12-26T18:03:31;101400.19;;;4.87
27715;BMP280;16051;53.024;8.630;2022-12-26T18:07:43;101400.91;;;4.91
27715;BMP280;16051;53.024;8.630;2022-12-26T18:11:45;101411.97;;;4.84
27715;BMP280;16051;53.024;8.630;2022-12-26T18:15:48;101413.88;;;4.87
27715;BMP280;16051;53.024;8.630;2022-12-26T18:20:05;101423.25;;;4.86
27715;BMP280;16051;53.024;8.630;2022-12-26T18:24:08;101422.06;;;4.87
27715;BMP280;16051;53.024;8.630;2022-12-26T18:28:13;101437.78;;;4.83
27715;BMP280;16051;53.024;8.630;2022-12-26T18:32:23;101442.63;;;4.72
27715;BMP280;16051;53.024;8.630;2022-12-26T18:36:37;101455.16;;;4.73
27715;BMP280;16051;53.024;8.630;2022-12-26T18:40:45;101457.44;;;4.75
27715;BMP280;16051;53.024;8.630;2022-12-26T18:44:47;101460.34;;;4.64
27715;BMP280;16051;53.024;8.630;2022-12-26T18:48:57;101452.13;;;4.64
27715;BMP280;16051;53.024;8.630;2022-12-26T18:53:20;101460.81;;;4.59
27715;BMP280;16051;53.024;8.630;2022-12-26T18:57:29;101468.56;;;4.64
27715;BMP280;16051;53.024;8.630;2022-12-26T19:01:32;101478.72;;;4.64
27715;BMP280;16051;53.024;8.630;2022-12-26T19:05:34;101488.13;;;4.63
27715;BMP280;16051;53.024;8.630;2022-12-26T19:09:43;101488.69;;;4.51
27715;BMP280;16051;53.024;8.630;2022-12-26T19:13:51;101479.59;;;4.57
27715;BMP280;16051;53.024;8.630;2022-12-26T19:17:53;101489.91;;;4.46
27715;BMP280;16051;53.024;8.630;2022-12-26T19:26:14;101495.16;;;4.33
27715;BMP280;16051;53.024;8.630;2022-12-26T19:30:18;101507.22;;;4.36
27715;BMP280;16051;53.024;8.630;2022-12-26T19:34:20;101508.41;;;4.35
27715;BMP280;16051;53.024;8.630;2022-12-26T19:38:26;101516.47;;;4.45
27715;BMP280;16051;53.024;8.630;2022-12-26T19:42:29;101517.31;;;4.42
27715;BMP280;16051;53.024;8.630;2022-12-26T19:46:33;101516.53;;;4.42
27715;BMP280;16051;53.024;8.630;2022-12-26T19:50:35;101516.63;;;4.35
27715;BMP280;16051;53.024;8.630;2022-12-26T19:54:38;101527.50;;;4.38
27715;BMP280;16051;53.024;8.630;2022-12-26T19:58:44;101521.78;;;4.29
27715;BMP280;16051;53.024;8.630;2022-12-26T20:02:46;101528.28;;;4.39
27715;BMP280;16051;53.024;8.630;2022-12-26T20:07:07;101536.53;;;4.35
27715;BMP280;16051;53.024;8.630;2022-12-26T20:11:13;101538.88;;;4.37
27715;BMP280;16051;53.024;8.630;2022-12-26T20:15:18;101534.16;;;4.41
27715;BMP280;16051;53.024;8.630;2022-12-26T20:19:21;101529.91;;;4.36
27715;BMP280;16051;53.024;8.630;2022-12-26T20:23:24;101525.72;;;4.25
27715;BMP280;16051;53.024;8.630;2022-12-26T20:27:26;101526.41;;;4.32
27715;BMP280;16051;53.024;8.630;2022-12-26T20:31:31;101543.63;;;4.33
27715;BMP280;16051;53.024;8.630;2022-12-26T20:35:34;101555.66;;;4.39
27715;BMP280;16051;53.024;8.630;2022-12-26T20:39:36;101558.03;;;4.37
27715;BMP280;16051;53.024;8.630;2022-12-26T20:43:39;101553.00;;;4.32
27715;BMP280;16051;53.024;8.630;2022-12-26T20:47:48;101566.63;;;4.35
27715;BMP280;16051;53.024;8.630;2022-12-26T20:51:50;101578.78;;;4.31
27715;BMP280;16051;53.024;8.630;2022-12-26T20:55:53;101571.81;;;4.26
27715;BMP280;16051;53.024;8.630;2022-12-26T20:59:59;101582.72;;;4.30
27715;BMP280;16051;53.024;8.630;2022-12-26T21:04:20;101587.78;;;4.31
27715;BMP280;16051;53.024;8.630;2022-12-26T21:08:29;101595.53;;;4.36
27715;BMP280;16051;53.024;8.630;2022-12-26T21:12:58;101603.78;;;4.33
27715;BMP280;16051;53.024;8.630;2022-12-26T21:17:02;101597.50;;;4.36
27715;BMP280;16051;53.024;8.630;2022-12-26T21:21:08;101594.81;;;4.32
27715;BMP280;16051;53.024;8.630;2022-12-26T21:25:11;101596.75;;;4.32
27715;BMP280;16051;53.024;8.630;2022-12-26T21:29:16;101608.84;;;4.34
27715;BMP280;16051;53.024;8.630;2022-12-26T21:33:20;101603.81;;;4.29
27715;BMP280;16051;53.024;8.630;2022-12-26T21:37:23;101600.13;;;4.46
27715;BMP280;16051;53.024;8.630;2022-12-26T21:41:51;101607.94;;;4.48
27715;BMP280;16051;53.024;8.630;2022-12-26T21:46:06;101613.72;;;4.54
27715;BMP280;16051;53.024;8.630;2022-12-26T21:50:18;101618.78;;;4.55
27715;BMP280;16051;53.024;8.630;2022-12-26T21:54:22;101617.66;;;4.49
27715;BMP280;16051;53.024;8.630;2022-12-26T21:58:43;101622.66;;;4.58
27715;BMP280;16051;53.024;8.630;2022-12-26T22:03:04;101621.16;;;4.53
27715;BMP280;16051;53.024;8.630;2022-12-26T22:07:52;101631.72;;;4.51
27715;BMP280;16051;53.024;8.630;2022-12-26T22:11:56;101627.84;;;4.48
27715;BMP280;16051;53.024;8.630;2022-12-26T22:16:25;101651.28;;;4.50
27715;BMP280;16051;53.024;8.630;2022-12-26T22:20:32;101658.38;;;4.43
27715;BMP280;16051;53.024;8.630;2022-12-26T22:24:34;101651.28;;;4.50
27715;BMP280;16051;53.024;8.630;2022-12-26T22:28:38;101656.00;;;4.45
27715;BMP280;16051;53.024;8.630;2022-12-26T22:32:44;101654.91;;;4.39
27715;BMP280;16051;53.024;8.630;2022-12-26T22:36:46;101659.34;;;4.26
27715;BMP280;16051;53.024;8.630;2022-12-26T22:40:56;101662.91;;;4.20
27715;BMP280;16051;53.024;8.630;2022-12-26T22:44:59;101660.13;;;4.23
27715;BMP280;16051;53.024;8.630;2022-12-26T22:49:08;101660.09;;;4.27
27715;BMP280;16051;53.024;8.630;2022-12-26T22:53:11;101671.06;;;4.23
27715;BMP280;16051;53.024;8.630;2022-12-26T22:57:13;101662.16;;;4.19
27715;BMP280;16051;53.024;8.630;2022-12-26T23:01:25;101666.09;;;4.15
27715;BMP280;16051;53.024;8.630;2022-12-26T23:05:28;101679.41;;;4.09
27715;BMP280;16051;53.024;8.630;2022-12-26T23:09:30;101686.13;;;4.01
27715;BMP280;16051;53.024;8.630;2022-12-26T23:13:33;101681.75;;;4.11
27715;BMP280;16051;53.024;8.630;2022-12-26T23:17:54;101681.00;;;4.07
27715;BMP280;16051;53.024;8.630;2022-12-26T23:22:16;101679.81;;;4.08
27715;BMP280;16051;53.024;8.630;2022-12-26T23:26:18;101685.72;;;4.03
27715;BMP280;16051;53.024;8.630;2022-12-26T23:30:21;101691.25;;;3.95
27715;BMP280;16051;53.024;8.630;2022-12-26T23:34:34;101681.44;;;3.98
27715;BMP280;16051;53.024;8.630;2022-12-26T23:38:36;101692.03;;;3.96
27715;BMP280;16051;53.024;8.630;2022-12-26T23:42:39;101684.19;;;3.98
27715;BMP280;16051;53.024;8.630;2022-12-26T23:46:41;101688.16;;;3.90
27715;BMP280;16051;53.024;8.630;2022-12-26T23:51:03;101678.00;;;3.94
27715;BMP280;16051;53.024;8.630;2022-12-26T23:55:06;101685.03;;;3.88
27715;BMP280;16051;53.024;8.630;2022-12-26T23:59:09;101688.16;;;3.90
